Aviation Digital Data Service (ADDS)

Output produced by METARs form (0219 UTC 01 May 2016)
found at http://www.aviationweather.gov/adds/metars/
 
KSAV 010204Z 13008KT 10SM BKN025 24/20 A3003 RMK AO2 T02390200 $